createdAt,value
2022-08-18T00:01:10.399Z,19.58
2022-08-18T00:03:55.753Z,19.33
2022-08-18T00:06:28.475Z,19.02
2022-08-18T00:08:57.987Z,20.17
2022-08-18T00:11:26.083Z,19.90
2022-08-18T00:13:53.876Z,19.80
2022-08-18T00:16:23.122Z,19.30
2022-08-18T00:18:51.003Z,19.85
2022-08-18T00:21:19.107Z,21.15
2022-08-18T00:23:46.991Z,21.00
2022-08-18T00:26:14.781Z,21.23
2022-08-18T00:28:42.643Z,22.95
2022-08-18T00:31:10.464Z,22.73
2022-08-18T00:33:39.611Z,22.83
2022-08-18T00:36:07.418Z,22.95
2022-08-18T00:38:35.190Z,27.38
2022-08-18T00:41:03.150Z,29.50
2022-08-18T00:43:36.538Z,32.22
2022-08-18T00:46:08.178Z,33.42
2022-08-18T00:48:36.146Z,32.45
2022-08-18T00:51:11.345Z,33.53
2022-08-18T00:53:45.735Z,33.45
2022-08-18T00:56:17.695Z,34.92
2022-08-18T00:58:50.482Z,35.67
2022-08-18T01:01:23.222Z,36.50
2022-08-18T01:03:55.167Z,34.70
2022-08-18T01:06:32.354Z,36.95
2022-08-18T01:09:01.771Z,36.03
2022-08-18T01:11:30.176Z,38.63
2022-08-18T01:13:59.134Z,37.15
2022-08-18T01:16:56.658Z,37.05
2022-08-18T01:19:44.417Z,37.10
2022-08-18T01:22:19.247Z,38.85
2022-08-18T01:25:11.543Z,39.95
2022-08-18T01:27:41.864Z,38.35
2022-08-18T01:30:18.179Z,39.83
2022-08-18T01:32:46.882Z,40.33
2022-08-18T01:35:18.197Z,39.60
2022-08-18T01:37:46.076Z,38.97
2022-08-18T01:41:21.759Z,37.15
2022-08-18T01:43:05.708Z,40.42
2022-08-18T01:45:34.489Z,38.63
2022-08-18T01:48:04.471Z,37.08
2022-08-18T01:50:35.128Z,36.33
2022-08-18T01:53:05.456Z,36.92
2022-08-18T01:55:35.115Z,37.40
2022-08-18T01:58:03.405Z,35.60
2022-08-18T02:00:32.216Z,35.28
2022-08-18T02:03:02.893Z,36.72
2022-08-18T02:05:34.659Z,35.90
2022-08-18T02:08:03.583Z,36.65
2022-08-18T02:10:32.068Z,34.55
2022-08-18T02:13:01.126Z,36.13
2022-08-18T02:15:29.071Z,35.72
2022-08-18T02:17:56.867Z,35.30
2022-08-18T02:20:25.313Z,36.30
2022-08-18T02:22:53.658Z,37.67
2022-08-18T02:25:21.539Z,38.10
2022-08-18T02:27:49.373Z,38.97
2022-08-18T02:30:20.015Z,37.03
2022-08-18T02:32:48.418Z,38.45
2022-08-18T02:35:16.245Z,36.33
2022-08-18T02:37:47.763Z,37.65
2022-08-18T02:40:16.513Z,33.95
2022-08-18T02:42:44.987Z,36.10
2022-08-18T02:45:13.756Z,36.10
2022-08-18T02:47:44.271Z,36.33
2022-08-18T02:50:12.918Z,36.80
2022-08-18T02:52:41.296Z,37.17
2022-08-18T02:55:10.937Z,35.92
2022-08-18T02:57:43.477Z,39.45
2022-08-18T03:00:15.053Z,37.92
2022-08-18T03:02:48.653Z,36.35
2022-08-18T03:05:16.908Z,37.47
2022-08-18T03:07:45.438Z,37.92
2022-08-18T03:10:31.373Z,37.72
2022-08-18T03:13:01.880Z,37.83
2022-08-18T03:15:29.695Z,37.25
2022-08-18T03:17:59.404Z,38.85
2022-08-18T03:20:30.321Z,37.70
2022-08-18T03:22:59.262Z,37.55
2022-08-18T03:25:27.123Z,40.70
2022-08-18T03:27:54.935Z,41.25
2022-08-18T03:30:23.619Z,41.92
2022-08-18T03:32:52.158Z,45.67
2022-08-18T03:35:21.350Z,48.00
2022-08-18T03:37:49.135Z,54.22
2022-08-18T03:43:23.762Z,53.38
2022-08-18T03:46:03.404Z,58.33
2022-08-18T03:48:33.098Z,54.70
2022-08-18T03:51:09.440Z,55.05
2022-08-18T03:53:41.515Z,49.83
2022-08-18T03:56:17.602Z,50.20
2022-08-18T03:58:47.585Z,46.67
2022-08-18T04:01:26.259Z,50.78
2022-08-18T04:03:57.002Z,54.42
2022-08-18T04:06:30.336Z,49.92
2022-08-18T04:09:01.316Z,53.90
2022-08-18T04:11:29.619Z,49.85
2022-08-18T04:14:03.918Z,51.83
2022-08-18T04:16:33.160Z,48.30
2022-08-18T04:19:03.536Z,48.95
2022-08-18T04:21:34.678Z,48.17
2022-08-18T04:24:09.864Z,45.03
2022-08-18T04:26:50.154Z,44.08
2022-08-18T04:29:21.173Z,46.97
2022-08-18T04:31:50.042Z,43.60
2022-08-18T04:34:18.553Z,44.67
2022-08-18T04:36:47.871Z,45.28
2022-08-18T04:39:15.659Z,45.22
2022-08-18T04:41:44.875Z,44.92
2022-08-18T04:44:14.808Z,44.53
2022-08-18T04:46:46.212Z,43.78
2022-08-18T04:49:14.400Z,45.50
2022-08-18T04:52:26.949Z,47.28
2022-08-18T04:54:38.351Z,48.60
2022-08-18T04:57:11.278Z,51.38
2022-08-18T04:59:41.336Z,51.80
2022-08-18T05:02:14.206Z,54.83
2022-08-18T05:04:47.206Z,54.90
2022-08-18T05:07:18.783Z,60.33
2022-08-18T05:09:48.244Z,54.83
2022-08-18T05:12:17.134Z,57.83
2022-08-18T05:14:46.375Z,57.85
2022-08-18T05:17:16.294Z,58.05
2022-08-18T05:19:45.751Z,59.53
2022-08-18T05:22:18.347Z,59.30
2022-08-18T05:24:48.543Z,55.05
2022-08-18T05:27:16.443Z,56.40
2022-08-18T05:29:46.138Z,63.75
2022-08-18T05:32:30.275Z,60.17
2022-08-18T05:35:06.140Z,57.83
2022-08-18T05:37:43.906Z,55.22
2022-08-18T05:40:15.997Z,56.88
2022-08-18T05:42:44.733Z,53.92
2022-08-18T05:45:16.568Z,56.30
2022-08-18T05:47:44.710Z,57.72
2022-08-18T05:50:16.396Z,58.22
2022-08-18T05:52:52.346Z,56.65
2022-08-18T05:55:47.969Z,49.75
2022-08-18T05:58:34.724Z,53.30
2022-08-18T06:01:05.778Z,52.97
2022-08-18T06:03:45.162Z,55.58
2022-08-18T06:06:18.260Z,47.15
2022-08-18T06:08:51.360Z,48.60
2022-08-18T06:11:22.775Z,49.15
2022-08-18T06:13:54.214Z,48.28
2022-08-18T06:16:39.924Z,47.78
2022-08-18T06:19:25.576Z,42.13
2022-08-18T06:22:03.703Z,47.08
2022-08-18T06:24:39.057Z,41.30
2022-08-18T06:27:17.672Z,42.70
2022-08-18T06:29:55.870Z,42.58
2022-08-18T06:32:36.800Z,40.90
2022-08-18T06:35:18.111Z,40.08
2022-08-18T06:38:16.620Z,43.97
2022-08-18T06:40:44.455Z,41.20
2022-08-18T06:43:17.060Z,42.20
2022-08-18T06:45:52.030Z,48.22
2022-08-18T06:48:28.311Z,43.30
2022-08-18T06:51:00.574Z,43.40
2022-08-18T06:53:53.552Z,43.58
2022-08-18T06:56:26.625Z,42.75
2022-08-18T06:58:56.475Z,45.72
2022-08-18T07:01:25.838Z,45.28
2022-08-18T07:03:58.188Z,47.58
2022-08-18T07:06:31.357Z,47.38
2022-08-18T07:09:24.047Z,49.53
2022-08-18T07:12:07.479Z,54.00
2022-08-18T07:14:46.841Z,47.47
2022-08-18T07:17:22.211Z,53.38
2022-08-18T07:20:20.208Z,46.13
2022-08-18T07:22:57.518Z,47.30
2022-08-18T07:25:30.406Z,39.65
2022-08-18T07:28:01.472Z,38.67
2022-08-18T07:30:34.511Z,40.53
2022-08-18T07:33:12.106Z,41.95
2022-08-18T07:35:45.722Z,42.72
2022-08-18T07:38:41.637Z,43.63
2022-08-18T07:41:15.572Z,38.85
2022-08-18T07:43:53.392Z,35.25
2022-08-18T07:46:28.116Z,38.35
2022-08-18T07:48:58.689Z,37.33
2022-08-18T07:51:37.561Z,40.38
2022-08-18T07:54:31.069Z,40.72
2022-08-18T07:57:07.079Z,38.30
2022-08-18T07:59:44.760Z,39.35
2022-08-18T08:02:29.991Z,38.97
2022-08-18T08:05:07.209Z,36.90
2022-08-18T08:07:43.885Z,41.10
2022-08-18T08:10:32.492Z,40.25
2022-08-18T08:13:12.683Z,38.78
2022-08-18T08:15:50.365Z,39.30
2022-08-18T08:18:26.347Z,36.35
2022-08-18T08:20:58.370Z,40.75
2022-08-18T08:23:31.933Z,38.20
2022-08-18T08:26:23.360Z,40.80
2022-08-18T08:29:02.538Z,45.75
2022-08-18T08:31:39.162Z,39.13
2022-08-18T08:34:15.815Z,36.90
2022-08-18T08:36:46.436Z,37.78
2022-08-18T08:39:22.385Z,39.42
2022-08-18T08:42:29.697Z,35.65
2022-08-18T08:44:59.168Z,36.22
2022-08-18T08:47:33.341Z,35.55
2022-08-18T08:50:05.315Z,37.03
2022-08-18T08:52:42.213Z,38.17
2022-08-18T08:55:16.288Z,36.83
2022-08-18T08:57:49.708Z,36.85
2022-08-18T09:00:17.889Z,34.58
2022-08-18T09:03:00.081Z,33.83
2022-08-18T09:05:35.977Z,35.95
2022-08-18T09:08:32.720Z,36.75
2022-08-18T09:11:18.985Z,35.85
2022-08-18T09:14:14.530Z,33.75
2022-08-18T09:16:53.984Z,36.30
2022-08-18T09:19:40.628Z,34.28
2022-08-18T09:22:20.940Z,32.25
2022-08-18T09:24:51.581Z,35.55
2022-08-18T09:27:48.673Z,34.20
2022-08-18T09:30:42.420Z,33.35
2022-08-18T09:33:22.909Z,32.55
2022-08-18T09:36:10.529Z,31.52
2022-08-18T09:39:08.653Z,30.17
2022-08-18T09:44:57.492Z,33.47
2022-08-18T09:48:03.591Z,35.45
2022-08-18T09:50:55.200Z,31.15
2022-08-18T09:53:54.347Z,32.90
2022-08-18T09:57:19.523Z,28.45
2022-08-18T10:00:12.876Z,29.88
2022-08-18T10:03:31.416Z,28.25
2022-08-18T10:09:36.517Z,27.70
2022-08-18T10:12:43.636Z,25.95
2022-08-18T10:15:39.430Z,30.83
2022-08-18T10:18:42.809Z,27.58
2022-08-18T10:21:21.055Z,27.98
2022-08-18T10:24:14.826Z,28.35
2022-08-18T10:27:10.876Z,27.75
2022-08-18T10:29:53.329Z,29.85
2022-08-18T10:32:54.307Z,29.63
2022-08-18T10:35:53.343Z,27.88
2022-08-18T10:38:30.761Z,27.10
2022-08-18T10:41:09.851Z,26.02
2022-08-18T10:43:46.187Z,26.25
2022-08-18T10:46:29.423Z,23.42
2022-08-18T10:49:04.476Z,23.95
2022-08-18T10:51:59.340Z,25.85
2022-08-18T10:54:51.092Z,26.30
2022-08-18T10:57:32.807Z,27.48
2022-08-18T11:00:09.704Z,27.80
2022-08-18T11:03:30.125Z,28.08
2022-08-18T11:06:03.734Z,24.30
2022-08-18T11:08:36.907Z,22.67
2022-08-18T11:11:34.594Z,22.40
2022-08-18T11:14:26.976Z,27.75
2022-08-18T11:17:04.150Z,26.05
2022-08-18T11:19:42.077Z,24.98
2022-08-18T11:22:31.077Z,23.60
2022-08-18T11:25:01.306Z,22.15
2022-08-18T11:27:35.271Z,25.02
2022-08-18T11:30:06.191Z,23.08
2022-08-18T11:32:51.869Z,23.52
2022-08-18T11:35:25.102Z,27.02
2022-08-18T11:37:58.306Z,24.23
2022-08-18T11:46:29.635Z,24.50
2022-08-18T11:49:02.149Z,21.50
2022-08-18T11:51:34.521Z,22.25
2022-08-18T11:54:23.204Z,18.27
2022-08-18T11:56:51.428Z,21.75
2022-08-18T12:02:23.816Z,24.10
2022-08-18T12:04:55.052Z,23.38
2022-08-18T12:07:29.838Z,24.08
2022-08-18T12:10:19.408Z,22.75
2022-08-18T12:12:53.666Z,23.13
2022-08-18T12:15:43.885Z,22.63
2022-08-18T12:18:25.937Z,21.10
2022-08-18T12:20:58.313Z,24.10
2022-08-18T12:23:26.649Z,25.98
2022-08-18T12:25:54.745Z,24.77
2022-08-18T12:28:22.834Z,24.48
2022-08-18T12:30:57.505Z,21.90
2022-08-18T12:33:47.814Z,22.70
2022-08-18T12:36:19.034Z,20.67
2022-08-18T12:38:52.303Z,21.70
2022-08-18T12:41:24.616Z,24.25
2022-08-18T12:43:58.419Z,21.98
2022-08-18T12:46:27.848Z,19.17
2022-08-18T12:49:00.727Z,21.48
2022-08-18T12:51:31.790Z,21.10
2022-08-18T12:54:02.910Z,18.17
2022-08-18T12:56:32.714Z,19.20
2022-08-18T12:59:06.876Z,19.20
2022-08-18T13:01:37.667Z,18.27
2022-08-18T13:04:12.124Z,18.92
2022-08-18T13:06:59.194Z,19.00
2022-08-18T13:09:47.984Z,20.40
2022-08-18T13:12:19.234Z,17.70
2022-08-18T13:14:49.741Z,17.60
2022-08-18T13:17:32.639Z,16.35
2022-08-18T13:20:07.778Z,13.57
2022-08-18T13:22:40.316Z,15.07
2022-08-18T13:25:11.003Z,12.07
2022-08-18T13:30:30.904Z,14.38
2022-08-18T13:33:05.464Z,13.93
2022-08-18T13:35:44.589Z,12.25
2022-08-18T13:38:20.667Z,13.32
2022-08-18T13:40:50.683Z,13.95
2022-08-18T13:43:23.547Z,14.80
2022-08-18T13:45:53.271Z,15.02
2022-08-18T13:48:25.497Z,12.60
2022-08-18T13:50:56.015Z,13.10
2022-08-18T13:53:27.618Z,12.30
2022-08-18T13:55:57.940Z,15.90
2022-08-18T13:58:27.267Z,11.05
2022-08-18T14:01:22.877Z,12.50
2022-08-18T14:03:48.105Z,12.05
2022-08-18T14:06:21.956Z,11.48
2022-08-18T14:08:52.968Z,13.43
2022-08-18T14:11:23.720Z,12.57
2022-08-18T14:13:54.114Z,12.93
2022-08-18T14:16:23.215Z,12.75
2022-08-18T14:19:12.591Z,13.32
2022-08-18T14:22:02.987Z,12.45
2022-08-18T14:24:50.767Z,10.85
2022-08-18T14:27:19.786Z,12.73
2022-08-18T14:29:49.753Z,10.88
2022-08-18T14:32:29.045Z,12.32
2022-08-18T14:35:00.526Z,11.38
2022-08-18T14:37:29.272Z,13.10
2022-08-18T14:39:59.314Z,14.50
2022-08-18T14:42:40.917Z,16.48
2022-08-18T14:45:26.566Z,14.02
2022-08-18T14:47:59.352Z,15.18
2022-08-18T14:50:27.807Z,16.25
2022-08-18T14:52:55.652Z,15.98
2022-08-18T14:55:25.029Z,15.77
2022-08-18T14:57:54.845Z,15.57
2022-08-18T15:00:28.056Z,15.20
2022-08-18T15:02:57.406Z,13.98
2022-08-18T15:05:32.136Z,13.73
2022-08-18T15:08:04.787Z,13.75
2022-08-18T15:10:34.497Z,14.95
2022-08-18T15:13:03.831Z,14.68
2022-08-18T15:15:42.227Z,13.65
2022-08-18T15:18:23.263Z,14.30
2022-08-18T15:21:10.204Z,13.00
2022-08-18T15:23:58.292Z,13.13
2022-08-18T15:26:27.802Z,13.10
2022-08-18T15:29:00.218Z,12.55
2022-08-18T15:34:20.604Z,12.10
2022-08-18T15:36:49.411Z,12.23
2022-08-18T15:39:17.991Z,12.38
2022-08-18T15:41:49.317Z,11.13
2022-08-18T15:44:19.630Z,11.77
2022-08-18T15:46:53.066Z,10.85
2022-08-18T15:49:21.906Z,12.10
2022-08-18T15:51:56.960Z,12.15
2022-08-18T15:54:25.334Z,12.13
2022-08-18T15:56:58.138Z,13.07
2022-08-18T15:59:26.905Z,12.10
2022-08-18T16:02:02.384Z,14.07
2022-08-18T16:04:30.300Z,14.15
2022-08-18T16:06:59.583Z,14.38
2022-08-18T16:09:27.412Z,13.07
2022-08-18T16:12:00.271Z,14.20
2022-08-18T16:14:28.339Z,13.10
2022-08-18T16:16:56.260Z,12.60
2022-08-18T16:19:25.609Z,12.00
2022-08-18T16:21:56.553Z,11.95
2022-08-18T16:24:24.556Z,11.57
2022-08-18T16:26:52.445Z,14.07
2022-08-18T16:29:24.038Z,12.70
2022-08-18T16:31:52.399Z,12.50
2022-08-18T16:34:22.711Z,13.75
2022-08-18T16:36:50.574Z,13.73
2022-08-18T16:39:19.594Z,13.52
2022-08-18T16:41:49.947Z,14.05
2022-08-18T16:44:17.667Z,12.63
2022-08-18T16:46:46.852Z,12.48
2022-08-18T16:49:14.825Z,12.23
2022-08-18T16:51:45.308Z,11.75
2022-08-18T16:54:14.490Z,10.65
2022-08-18T16:56:42.235Z,10.13
2022-08-18T16:59:27.790Z,11.38
2022-08-18T17:02:14.591Z,11.15
2022-08-18T17:04:42.448Z,11.52
2022-08-18T17:07:10.247Z,10.48
2022-08-18T17:09:38.014Z,10.40
2022-08-18T17:12:06.227Z,10.70
2022-08-18T17:14:34.142Z,11.00
2022-08-18T17:17:03.518Z,9.95
2022-08-18T17:19:34.250Z,10.18
2022-08-18T17:22:03.374Z,10.88
2022-08-18T17:24:32.532Z,10.07
2022-08-18T17:27:26.105Z,10.30
2022-08-18T17:30:01.732Z,9.43
2022-08-18T17:35:15.159Z,10.35
2022-08-18T17:37:52.173Z,9.27
2022-08-18T17:40:28.594Z,9.13
2022-08-18T17:42:57.249Z,9.27
2022-08-18T17:45:25.335Z,9.75
2022-08-18T17:48:01.209Z,9.52
2022-08-18T17:50:52.103Z,9.88
2022-08-18T17:53:21.386Z,9.45
2022-08-18T17:55:55.100Z,8.98
2022-08-18T17:58:30.664Z,10.65
2022-08-18T18:00:58.464Z,8.90
2022-08-18T18:03:28.348Z,9.00
2022-08-18T18:06:03.708Z,8.32
2022-08-18T18:08:52.987Z,8.57
2022-08-18T18:11:31.268Z,8.60
2022-08-18T18:14:00.441Z,8.50
2022-08-18T18:16:34.902Z,9.45
2022-08-18T18:19:07.320Z,11.43
2022-08-18T18:22:00.703Z,8.40
2022-08-18T18:24:32.112Z,10.25
2022-08-18T18:27:00.137Z,10.00
2022-08-18T18:29:35.626Z,8.23
2022-08-18T18:32:07.682Z,8.25
2022-08-18T18:34:40.140Z,7.90
2022-08-18T18:37:26.254Z,8.95
2022-08-18T18:39:59.598Z,13.75
2022-08-18T18:42:29.491Z,11.93
2022-08-18T18:44:59.562Z,10.15
2022-08-18T18:47:44.326Z,10.38
2022-08-18T18:50:21.883Z,9.15
2022-08-18T18:53:00.193Z,10.55
2022-08-18T18:55:32.045Z,10.88
2022-08-18T18:58:12.150Z,11.95
2022-08-18T19:00:53.627Z,11.57
2022-08-18T19:03:27.283Z,11.13
2022-08-18T19:06:13.099Z,11.02
2022-08-18T19:08:50.513Z,10.63
2022-08-18T19:11:25.822Z,10.93
2022-08-18T19:14:00.641Z,11.00
2022-08-18T19:16:34.668Z,10.82
2022-08-18T19:19:36.327Z,13.23
2022-08-18T19:22:06.438Z,11.43
2022-08-18T19:24:40.248Z,11.30
2022-08-18T19:27:15.996Z,10.85
2022-08-18T19:29:47.400Z,10.13
2022-08-18T19:32:19.775Z,15.30
2022-08-18T19:34:51.489Z,15.95
2022-08-18T19:37:31.253Z,12.02
2022-08-18T19:40:09.244Z,11.18
2022-08-18T19:42:42.815Z,12.82
2022-08-18T19:45:23.382Z,10.52
2022-08-18T19:47:57.810Z,10.93
2022-08-18T19:50:32.479Z,10.65
2022-08-18T19:53:20.446Z,12.05
2022-08-18T19:56:12.363Z,11.93
2022-08-18T19:59:15.544Z,13.10
2022-08-18T20:01:58.500Z,11.38
2022-08-18T20:04:43.623Z,11.43
2022-08-18T20:07:31.372Z,11.60
2022-08-18T20:10:15.579Z,11.00
2022-08-18T20:13:01.002Z,10.40
2022-08-18T20:15:31.078Z,10.45
2022-08-18T20:18:06.422Z,13.80
2022-08-18T20:20:38.098Z,14.73
2022-08-18T20:23:31.166Z,17.48
2022-08-18T20:26:00.621Z,10.73
2022-08-18T20:28:46.125Z,10.30
2022-08-18T20:31:17.444Z,10.02
2022-08-18T20:33:54.141Z,10.45
2022-08-18T20:36:29.436Z,12.93
2022-08-18T20:38:59.106Z,11.13
2022-08-18T20:41:47.180Z,10.93
2022-08-18T20:44:52.053Z,10.85
2022-08-18T20:47:42.599Z,10.90
2022-08-18T20:50:36.631Z,10.95
2022-08-18T20:53:13.075Z,11.55
2022-08-18T20:55:49.222Z,11.57
2022-08-18T20:58:27.674Z,10.98
2022-08-18T21:00:58.205Z,10.60
2022-08-18T21:03:36.632Z,10.05
2022-08-18T21:06:05.461Z,11.25
2022-08-18T21:08:35.768Z,11.20
2022-08-18T21:11:09.180Z,11.18
2022-08-18T21:13:51.483Z,10.93
2022-08-18T21:16:37.959Z,11.85
2022-08-18T21:19:13.787Z,12.20
2022-08-18T21:21:46.775Z,13.07
2022-08-18T21:24:28.152Z,12.68
2022-08-18T21:26:58.583Z,12.98
2022-08-18T21:29:34.489Z,13.80
2022-08-18T21:32:19.432Z,13.85
2022-08-18T21:34:50.979Z,13.73
2022-08-18T21:37:20.224Z,13.23
2022-08-18T21:39:51.090Z,13.00
2022-08-18T21:42:22.255Z,13.13
2022-08-18T21:44:54.286Z,12.05
2022-08-18T21:47:26.130Z,13.05
2022-08-18T21:50:08.277Z,12.18
2022-08-18T21:52:38.522Z,12.20
2022-08-18T21:55:14.787Z,11.55
2022-08-18T21:57:52.725Z,12.18
2022-08-18T22:00:26.914Z,12.05
2022-08-18T22:03:12.536Z,11.10
2022-08-18T22:05:58.683Z,11.10
2022-08-18T22:08:29.736Z,11.13
2022-08-18T22:11:59.911Z,10.77
2022-08-18T22:14:53.502Z,11.00
2022-08-18T22:17:31.530Z,10.50
2022-08-18T22:20:38.684Z,11.30
2022-08-18T22:23:43.832Z,10.55
2022-08-18T22:26:18.890Z,11.60
2022-08-18T22:28:59.729Z,11.15
2022-08-18T22:31:30.877Z,10.70
2022-08-18T22:34:07.233Z,10.68
2022-08-18T22:36:37.443Z,11.75
2022-08-18T22:39:08.682Z,11.45
2022-08-18T22:41:36.756Z,11.85
2022-08-18T22:44:05.506Z,11.70
2022-08-18T22:46:33.696Z,11.45
2022-08-18T22:49:03.386Z,11.80
2022-08-18T22:51:32.932Z,12.50
2022-08-18T22:54:00.845Z,11.15
2022-08-18T22:56:34.428Z,11.52
2022-08-18T22:59:12.150Z,11.15
2022-08-18T23:01:45.464Z,11.75
2022-08-18T23:04:16.300Z,11.02
2022-08-18T23:06:51.128Z,11.32
2022-08-18T23:09:25.111Z,11.25
2022-08-18T23:11:54.622Z,11.73
2022-08-18T23:14:23.062Z,11.60
2022-08-18T23:16:51.137Z,11.75
2022-08-18T23:19:22.177Z,11.75
2022-08-18T23:21:51.618Z,10.95
2022-08-18T23:24:21.194Z,11.25
2022-08-18T23:26:49.240Z,12.07
2022-08-18T23:29:17.224Z,10.25
2022-08-18T23:31:46.006Z,12.02
2022-08-18T23:34:17.225Z,11.88
2022-08-18T23:36:52.413Z,11.40
2022-08-18T23:39:20.216Z,10.60
2022-08-18T23:41:48.130Z,10.65
2022-08-18T23:44:16.718Z,10.30
2022-08-18T23:46:44.835Z,11.98
2022-08-18T23:49:14.796Z,11.18
2022-08-18T23:51:46.074Z,11.70
2022-08-18T23:54:17.718Z,10.43
2022-08-18T23:56:47.611Z,11.05
2022-08-18T23:59:17.302Z,11.18
